sensor_id;sensor_type;location;lat;lon;timestamp;P1;durP1;ratioP1;P2;durP2;ratioP2
70825;SDS011;58446;41.490;22.098;2022-12-07T00:00:53;45.42;;;22.40;;
70825;SDS011;58446;41.490;22.098;2022-12-07T00:03:19;38.53;;;24.02;;
70825;SDS011;58446;41.490;22.098;2022-12-07T00:05:44;36.73;;;24.13;;
70825;SDS011;58446;41.490;22.098;2022-12-07T00:08:10;48.17;;;26.50;;
70825;SDS011;58446;41.490;22.098;2022-12-07T00:10:36;53.03;;;30.57;;
70825;SDS011;58446;41.490;22.098;2022-12-07T00:13:01;51.85;;;30.92;;
70825;SDS011;58446;41.490;22.098;2022-12-07T00:15:27;39.57;;;24.20;;
70825;SDS011;58446;41.490;22.098;2022-12-07T00:17:53;36.47;;;23.25;;
70825;SDS011;58446;41.490;22.098;2022-12-07T00:20:19;40.05;;;24.77;;
70825;SDS011;58446;41.490;22.098;2022-12-07T00:22:44;36.40;;;22.73;;
70825;SDS011;58446;41.490;22.098;2022-12-07T00:25:10;38.77;;;23.60;;
70825;SDS011;58446;41.490;22.098;2022-12-07T00:27:36;38.97;;;24.20;;
70825;SDS011;58446;41.490;22.098;2022-12-07T00:30:01;38.17;;;23.67;;
70825;SDS011;58446;41.490;22.098;2022-12-07T00:32:27;36.90;;;22.38;;
70825;SDS011;58446;41.490;22.098;2022-12-07T00:34:53;35.10;;;21.17;;
70825;SDS011;58446;41.490;22.098;2022-12-07T00:37:18;36.63;;;21.23;;
70825;SDS011;58446;41.490;22.098;2022-12-07T00:39:45;32.70;;;21.20;;
70825;SDS011;58446;41.490;22.098;2022-12-07T00:42:11;36.58;;;21.25;;
70825;SDS011;58446;41.490;22.098;2022-12-07T00:44:37;39.37;;;20.47;;
70825;SDS011;58446;41.490;22.098;2022-12-07T00:47:02;30.42;;;18.80;;
70825;SDS011;58446;41.490;22.098;2022-12-07T00:49:28;24.87;;;16.23;;
70825;SDS011;58446;41.490;22.098;2022-12-07T00:51:54;24.95;;;16.23;;
70825;SDS011;58446;41.490;22.098;2022-12-07T00:54:19;22.97;;;16.13;;
70825;SDS011;58446;41.490;22.098;2022-12-07T00:56:45;26.58;;;16.52;;
70825;SDS011;58446;41.490;22.098;2022-12-07T00:59:12;24.63;;;16.67;;
70825;SDS011;58446;41.490;22.098;2022-12-07T01:01:40;26.73;;;16.73;;
70825;SDS011;58446;41.490;22.098;2022-12-07T01:04:05;29.30;;;19.27;;
70825;SDS011;58446;41.490;22.098;2022-12-07T01:06:31;26.67;;;15.47;;
70825;SDS011;58446;41.490;22.098;2022-12-07T01:08:57;26.35;;;16.45;;
70825;SDS011;58446;41.490;22.098;2022-12-07T01:11:24;24.13;;;16.08;;
70825;SDS011;58446;41.490;22.098;2022-12-07T01:13:52;24.10;;;16.85;;
70825;SDS011;58446;41.490;22.098;2022-12-07T01:16:19;25.47;;;17.57;;
70825;SDS011;58446;41.490;22.098;2022-12-07T01:18:46;26.73;;;16.88;;
70825;SDS011;58446;41.490;22.098;2022-12-07T01:21:15;28.45;;;17.77;;
70825;SDS011;58446;41.490;22.098;2022-12-07T01:23:42;40.90;;;24.58;;
70825;SDS011;58446;41.490;22.098;2022-12-07T01:26:12;31.58;;;18.70;;
70825;SDS011;58446;41.490;22.098;2022-12-07T01:28:39;30.13;;;18.53;;
70825;SDS011;58446;41.490;22.098;2022-12-07T01:31:10;44.53;;;25.25;;
70825;SDS011;58446;41.490;22.098;2022-12-07T01:33:40;63.97;;;37.47;;
70825;SDS011;58446;41.490;22.098;2022-12-07T01:38:42;43.97;;;24.40;;
70825;SDS011;58446;41.490;22.098;2022-12-07T01:41:08;48.60;;;28.80;;
70825;SDS011;58446;41.490;22.098;2022-12-07T01:43:34;42.67;;;27.27;;
70825;SDS011;58446;41.490;22.098;2022-12-07T01:46:01;36.65;;;22.92;;
70825;SDS011;58446;41.490;22.098;2022-12-07T01:48:32;45.17;;;25.73;;
70825;SDS011;58446;41.490;22.098;2022-12-07T01:51:09;26.17;;;15.50;;
70825;SDS011;58446;41.490;22.098;2022-12-07T01:53:38;32.35;;;18.50;;
70825;SDS011;58446;41.490;22.098;2022-12-07T01:56:07;32.90;;;20.08;;
70825;SDS011;58446;41.490;22.098;2022-12-07T01:58:35;30.08;;;18.63;;
70825;SDS011;58446;41.490;22.098;2022-12-07T02:01:02;25.58;;;16.50;;
70825;SDS011;58446;41.490;22.098;2022-12-07T02:03:38;19.97;;;12.03;;
70825;SDS011;58446;41.490;22.098;2022-12-07T02:06:07;25.50;;;16.27;;
70825;SDS011;58446;41.490;22.098;2022-12-07T02:08:34;22.08;;;15.18;;
70825;SDS011;58446;41.490;22.098;2022-12-07T02:11:00;22.13;;;14.85;;
70825;SDS011;58446;41.490;22.098;2022-12-07T02:13:28;24.40;;;16.45;;
70825;SDS011;58446;41.490;22.098;2022-12-07T02:18:55;38.10;;;22.20;;
70825;SDS011;58446;41.490;22.098;2022-12-07T02:24:29;39.55;;;24.60;;
70825;SDS011;58446;41.490;22.098;2022-12-07T02:30:12;46.03;;;25.20;;
70825;SDS011;58446;41.490;22.098;2022-12-07T02:32:49;59.17;;;31.83;;
70825;SDS011;58446;41.490;22.098;2022-12-07T02:35:24;53.75;;;29.55;;
70825;SDS011;58446;41.490;22.098;2022-12-07T02:38:02;58.28;;;33.90;;
70825;SDS011;58446;41.490;22.098;2022-12-07T02:43:23;53.10;;;30.03;;
70825;SDS011;58446;41.490;22.098;2022-12-07T02:45:52;56.33;;;33.45;;
70825;SDS011;58446;41.490;22.098;2022-12-07T02:48:21;52.70;;;32.03;;
70825;SDS011;58446;41.490;22.098;2022-12-07T02:50:49;57.35;;;32.05;;
70825;SDS011;58446;41.490;22.098;2022-12-07T03:01:33;37.33;;;21.55;;
70825;SDS011;58446;41.490;22.098;2022-12-07T03:04:27;44.85;;;25.67;;
70825;SDS011;58446;41.490;22.098;2022-12-07T03:12:53;41.38;;;25.58;;
70825;SDS011;58446;41.490;22.098;2022-12-07T03:15:46;42.88;;;26.20;;
70825;SDS011;58446;41.490;22.098;2022-12-07T03:18:25;38.87;;;24.23;;
70825;SDS011;58446;41.490;22.098;2022-12-07T03:20:55;40.65;;;24.88;;
70825;SDS011;58446;41.490;22.098;2022-12-07T03:23:27;39.90;;;22.95;;
70825;SDS011;58446;41.490;22.098;2022-12-07T03:25:58;39.55;;;23.60;;
70825;SDS011;58446;41.490;22.098;2022-12-07T03:28:26;40.65;;;23.83;;
70825;SDS011;58446;41.490;22.098;2022-12-07T03:33:29;39.10;;;22.30;;
70825;SDS011;58446;41.490;22.098;2022-12-07T03:36:06;35.28;;;21.92;;
70825;SDS011;58446;41.490;22.098;2022-12-07T03:38:42;30.35;;;19.50;;
70825;SDS011;58446;41.490;22.098;2022-12-07T03:41:23;27.90;;;17.95;;
70825;SDS011;58446;41.490;22.098;2022-12-07T03:43:54;28.47;;;18.30;;
70825;SDS011;58446;41.490;22.098;2022-12-07T03:46:25;26.33;;;16.33;;
70825;SDS011;58446;41.490;22.098;2022-12-07T03:57:21;45.23;;;28.10;;
70825;SDS011;58446;41.490;22.098;2022-12-07T03:59:49;27.52;;;18.23;;
70825;SDS011;58446;41.490;22.098;2022-12-07T04:02:16;31.77;;;18.73;;
70825;SDS011;58446;41.490;22.098;2022-12-07T04:04:42;32.95;;;19.52;;
70825;SDS011;58446;41.490;22.098;2022-12-07T04:07:08;52.38;;;26.83;;
70825;SDS011;58446;41.490;22.098;2022-12-07T04:09:34;37.87;;;22.87;;
70825;SDS011;58446;41.490;22.098;2022-12-07T04:12:00;39.80;;;23.13;;
70825;SDS011;58446;41.490;22.098;2022-12-07T04:14:25;39.17;;;22.03;;
70825;SDS011;58446;41.490;22.098;2022-12-07T04:16:52;41.97;;;22.17;;
70825;SDS011;58446;41.490;22.098;2022-12-07T04:19:22;39.30;;;22.17;;
70825;SDS011;58446;41.490;22.098;2022-12-07T04:21:52;36.20;;;21.10;;
70825;SDS011;58446;41.490;22.098;2022-12-07T04:24:19;41.08;;;24.02;;
70825;SDS011;58446;41.490;22.098;2022-12-07T04:26:45;40.58;;;24.48;;
70825;SDS011;58446;41.490;22.098;2022-12-07T04:29:11;44.33;;;26.40;;
70825;SDS011;58446;41.490;22.098;2022-12-07T04:31:37;41.08;;;23.60;;
70825;SDS011;58446;41.490;22.098;2022-12-07T04:34:03;40.40;;;22.70;;
70825;SDS011;58446;41.490;22.098;2022-12-07T04:36:30;31.17;;;20.88;;
70825;SDS011;58446;41.490;22.098;2022-12-07T04:38:56;33.33;;;20.85;;
70825;SDS011;58446;41.490;22.098;2022-12-07T04:41:23;38.60;;;21.65;;
70825;SDS011;58446;41.490;22.098;2022-12-07T04:43:55;45.38;;;25.38;;
70825;SDS011;58446;41.490;22.098;2022-12-07T04:46:26;39.17;;;23.03;;
70825;SDS011;58446;41.490;22.098;2022-12-07T04:48:53;42.42;;;23.67;;
70825;SDS011;58446;41.490;22.098;2022-12-07T04:51:20;43.30;;;25.42;;
70825;SDS011;58446;41.490;22.098;2022-12-07T04:53:49;46.13;;;24.50;;
70825;SDS011;58446;41.490;22.098;2022-12-07T04:56:15;40.90;;;23.27;;
70825;SDS011;58446;41.490;22.098;2022-12-07T04:58:43;37.80;;;21.67;;
70825;SDS011;58446;41.490;22.098;2022-12-07T05:01:09;32.17;;;18.98;;
70825;SDS011;58446;41.490;22.098;2022-12-07T05:03:36;31.55;;;18.35;;
70825;SDS011;58446;41.490;22.098;2022-12-07T05:06:02;33.85;;;19.00;;
70825;SDS011;58446;41.490;22.098;2022-12-07T05:08:29;31.57;;;17.97;;
70825;SDS011;58446;41.490;22.098;2022-12-07T05:10:54;28.77;;;17.20;;
70825;SDS011;58446;41.490;22.098;2022-12-07T05:13:20;31.33;;;17.70;;
70825;SDS011;58446;41.490;22.098;2022-12-07T05:15:46;31.67;;;18.17;;
70825;SDS011;58446;41.490;22.098;2022-12-07T05:18:13;31.33;;;18.35;;
70825;SDS011;58446;41.490;22.098;2022-12-07T05:20:39;56.97;;;30.67;;
70825;SDS011;58446;41.490;22.098;2022-12-07T05:23:05;47.77;;;26.33;;
70825;SDS011;58446;41.490;22.098;2022-12-07T05:25:31;38.70;;;23.40;;
70825;SDS011;58446;41.490;22.098;2022-12-07T05:27:57;40.97;;;25.00;;
70825;SDS011;58446;41.490;22.098;2022-12-07T05:30:23;37.72;;;23.73;;
70825;SDS011;58446;41.490;22.098;2022-12-07T05:32:49;96.00;;;48.55;;
70825;SDS011;58446;41.490;22.098;2022-12-07T05:35:15;55.03;;;29.67;;
70825;SDS011;58446;41.490;22.098;2022-12-07T05:37:41;49.58;;;28.20;;
70825;SDS011;58446;41.490;22.098;2022-12-07T05:40:06;54.95;;;31.20;;
70825;SDS011;58446;41.490;22.098;2022-12-07T05:42:33;51.43;;;29.93;;
70825;SDS011;58446;41.490;22.098;2022-12-07T05:44:59;54.75;;;31.58;;
70825;SDS011;58446;41.490;22.098;2022-12-07T05:47:24;52.53;;;30.58;;
70825;SDS011;58446;41.490;22.098;2022-12-07T05:49:50;47.67;;;28.67;;
70825;SDS011;58446;41.490;22.098;2022-12-07T05:52:16;45.80;;;29.13;;
70825;SDS011;58446;41.490;22.098;2022-12-07T05:54:41;44.20;;;27.48;;
70825;SDS011;58446;41.490;22.098;2022-12-07T05:57:07;40.90;;;24.80;;
70825;SDS011;58446;41.490;22.098;2022-12-07T05:59:33;29.38;;;18.13;;
70825;SDS011;58446;41.490;22.098;2022-12-07T06:02:00;25.90;;;15.43;;
70825;SDS011;58446;41.490;22.098;2022-12-07T06:04:28;32.40;;;20.50;;
70825;SDS011;58446;41.490;22.098;2022-12-07T06:06:56;35.20;;;21.55;;
70825;SDS011;58446;41.490;22.098;2022-12-07T06:09:23;31.70;;;19.90;;
70825;SDS011;58446;41.490;22.098;2022-12-07T06:11:50;29.00;;;18.57;;
70825;SDS011;58446;41.490;22.098;2022-12-07T06:14:35;29.45;;;17.80;;
70825;SDS011;58446;41.490;22.098;2022-12-07T06:17:01;27.02;;;16.50;;
70825;SDS011;58446;41.490;22.098;2022-12-07T06:19:26;23.50;;;14.85;;
70825;SDS011;58446;41.490;22.098;2022-12-07T06:21:52;22.00;;;14.63;;
70825;SDS011;58446;41.490;22.098;2022-12-07T06:24:18;23.52;;;13.88;;
70825;SDS011;58446;41.490;22.098;2022-12-07T06:26:44;23.93;;;14.63;;
70825;SDS011;58446;41.490;22.098;2022-12-07T06:29:10;24.27;;;15.07;;
70825;SDS011;58446;41.490;22.098;2022-12-07T06:31:37;28.05;;;16.73;;
70825;SDS011;58446;41.490;22.098;2022-12-07T06:34:07;36.60;;;18.73;;
70825;SDS011;58446;41.490;22.098;2022-12-07T06:36:35;25.20;;;15.88;;
70825;SDS011;58446;41.490;22.098;2022-12-07T06:39:01;26.33;;;14.70;;
70825;SDS011;58446;41.490;22.098;2022-12-07T06:41:27;37.05;;;21.88;;
70825;SDS011;58446;41.490;22.098;2022-12-07T06:43:53;36.60;;;23.33;;
70825;SDS011;58446;41.490;22.098;2022-12-07T06:46:18;38.58;;;23.25;;
70825;SDS011;58446;41.490;22.098;2022-12-07T06:48:44;43.17;;;24.65;;
70825;SDS011;58446;41.490;22.098;2022-12-07T06:51:10;35.53;;;20.20;;
70825;SDS011;58446;41.490;22.098;2022-12-07T06:53:36;67.63;;;39.30;;
70825;SDS011;58446;41.490;22.098;2022-12-07T06:56:02;110.57;;;61.77;;
70825;SDS011;58446;41.490;22.098;2022-12-07T06:58:28;76.57;;;48.13;;
70825;SDS011;58446;41.490;22.098;2022-12-07T07:00:54;49.80;;;32.17;;
70825;SDS011;58446;41.490;22.098;2022-12-07T07:03:20;57.97;;;33.90;;
70825;SDS011;58446;41.490;22.098;2022-12-07T07:05:45;49.47;;;30.70;;
70825;SDS011;58446;41.490;22.098;2022-12-07T07:08:11;63.97;;;36.83;;
70825;SDS011;58446;41.490;22.098;2022-12-07T07:10:37;72.90;;;42.20;;
70825;SDS011;58446;41.490;22.098;2022-12-07T07:13:03;80.70;;;44.93;;
70825;SDS011;58446;41.490;22.098;2022-12-07T07:15:29;86.25;;;47.00;;
70825;SDS011;58446;41.490;22.098;2022-12-07T07:17:55;73.35;;;44.08;;
70825;SDS011;58446;41.490;22.098;2022-12-07T07:20:21;82.43;;;48.43;;
70825;SDS011;58446;41.490;22.098;2022-12-07T07:22:47;87.63;;;52.13;;
70825;SDS011;58446;41.490;22.098;2022-12-07T07:25:13;115.22;;;65.53;;
70825;SDS011;58446;41.490;22.098;2022-12-07T07:27:40;158.47;;;89.83;;
70825;SDS011;58446;41.490;22.098;2022-12-07T07:30:05;151.27;;;89.85;;
70825;SDS011;58446;41.490;22.098;2022-12-07T07:32:32;134.88;;;79.90;;
70825;SDS011;58446;41.490;22.098;2022-12-07T07:34:58;124.50;;;73.73;;
70825;SDS011;58446;41.490;22.098;2022-12-07T07:37:23;114.95;;;69.30;;
70825;SDS011;58446;41.490;22.098;2022-12-07T07:39:49;76.20;;;47.80;;
70825;SDS011;58446;41.490;22.098;2022-12-07T07:42:15;65.88;;;41.03;;
70825;SDS011;58446;41.490;22.098;2022-12-07T07:44:40;63.60;;;40.17;;
70825;SDS011;58446;41.490;22.098;2022-12-07T07:47:06;56.30;;;37.35;;
70825;SDS011;58446;41.490;22.098;2022-12-07T07:49:32;38.60;;;24.70;;
70825;SDS011;58446;41.490;22.098;2022-12-07T07:51:57;27.63;;;17.90;;
70825;SDS011;58446;41.490;22.098;2022-12-07T07:54:23;38.53;;;24.03;;
70825;SDS011;58446;41.490;22.098;2022-12-07T07:56:49;33.80;;;18.58;;
70825;SDS011;58446;41.490;22.098;2022-12-07T07:59:15;28.03;;;18.27;;
70825;SDS011;58446;41.490;22.098;2022-12-07T08:01:41;28.05;;;18.95;;
70825;SDS011;58446;41.490;22.098;2022-12-07T08:04:06;48.43;;;30.57;;
70825;SDS011;58446;41.490;22.098;2022-12-07T08:06:32;35.83;;;25.37;;
70825;SDS011;58446;41.490;22.098;2022-12-07T08:08:58;28.02;;;18.63;;
70825;SDS011;58446;41.490;22.098;2022-12-07T08:11:24;29.80;;;20.80;;
70825;SDS011;58446;41.490;22.098;2022-12-07T08:13:49;23.00;;;15.98;;
70825;SDS011;58446;41.490;22.098;2022-12-07T08:16:15;24.87;;;16.00;;
70825;SDS011;58446;41.490;22.098;2022-12-07T08:18:42;21.77;;;14.60;;
70825;SDS011;58446;41.490;22.098;2022-12-07T08:21:09;20.80;;;13.85;;
70825;SDS011;58446;41.490;22.098;2022-12-07T08:23:37;21.73;;;13.18;;
70825;SDS011;58446;41.490;22.098;2022-12-07T08:26:03;21.38;;;14.20;;
70825;SDS011;58446;41.490;22.098;2022-12-07T08:28:30;30.63;;;22.30;;
70825;SDS011;58446;41.490;22.098;2022-12-07T08:31:00;29.08;;;21.63;;
70825;SDS011;58446;41.490;22.098;2022-12-07T08:33:26;36.50;;;26.88;;
70825;SDS011;58446;41.490;22.098;2022-12-07T08:35:52;26.30;;;19.27;;
70825;SDS011;58446;41.490;22.098;2022-12-07T08:38:17;22.55;;;15.93;;
70825;SDS011;58446;41.490;22.098;2022-12-07T08:40:43;20.70;;;12.77;;
70825;SDS011;58446;41.490;22.098;2022-12-07T08:43:11;18.27;;;12.43;;
70825;SDS011;58446;41.490;22.098;2022-12-07T08:45:37;16.97;;;10.70;;
70825;SDS011;58446;41.490;22.098;2022-12-07T08:48:06;15.40;;;9.48;;
70825;SDS011;58446;41.490;22.098;2022-12-07T08:50:35;17.95;;;11.18;;
70825;SDS011;58446;41.490;22.098;2022-12-07T08:53:02;19.30;;;11.18;;
70825;SDS011;58446;41.490;22.098;2022-12-07T08:55:29;18.85;;;10.35;;
70825;SDS011;58446;41.490;22.098;2022-12-07T08:57:57;15.40;;;9.57;;
70825;SDS011;58446;41.490;22.098;2022-12-07T09:00:24;13.93;;;8.90;;
70825;SDS011;58446;41.490;22.098;2022-12-07T09:02:51;16.80;;;9.40;;
70825;SDS011;58446;41.490;22.098;2022-12-07T09:05:16;17.37;;;10.10;;
70825;SDS011;58446;41.490;22.098;2022-12-07T09:07:46;17.10;;;10.07;;
70825;SDS011;58446;41.490;22.098;2022-12-07T09:10:15;15.77;;;9.07;;
70825;SDS011;58446;41.490;22.098;2022-12-07T09:12:40;16.07;;;10.13;;
70825;SDS011;58446;41.490;22.098;2022-12-07T09:15:06;15.57;;;9.48;;
70825;SDS011;58446;41.490;22.098;2022-12-07T09:17:33;17.77;;;10.40;;
70825;SDS011;58446;41.490;22.098;2022-12-07T09:19:59;16.90;;;10.27;;
70825;SDS011;58446;41.490;22.098;2022-12-07T09:22:29;19.02;;;11.43;;
70825;SDS011;58446;41.490;22.098;2022-12-07T09:24:56;20.35;;;12.57;;
70825;SDS011;58446;41.490;22.098;2022-12-07T09:27:22;21.60;;;13.00;;
70825;SDS011;58446;41.490;22.098;2022-12-07T09:29:48;20.40;;;13.50;;
70825;SDS011;58446;41.490;22.098;2022-12-07T09:32:13;20.77;;;14.07;;
70825;SDS011;58446;41.490;22.098;2022-12-07T09:34:39;40.83;;;21.65;;
70825;SDS011;58446;41.490;22.098;2022-12-07T09:37:05;28.00;;;16.13;;
70825;SDS011;58446;41.490;22.098;2022-12-07T09:39:31;24.30;;;16.90;;
70825;SDS011;58446;41.490;22.098;2022-12-07T09:41:57;31.10;;;17.65;;
70825;SDS011;58446;41.490;22.098;2022-12-07T09:44:24;26.17;;;16.50;;
70825;SDS011;58446;41.490;22.098;2022-12-07T09:46:51;28.83;;;17.50;;
70825;SDS011;58446;41.490;22.098;2022-12-07T09:49:21;30.27;;;18.35;;
70825;SDS011;58446;41.490;22.098;2022-12-07T09:54:35;32.33;;;18.88;;
70825;SDS011;58446;41.490;22.098;2022-12-07T09:57:02;31.90;;;18.67;;
70825;SDS011;58446;41.490;22.098;2022-12-07T09:59:28;32.13;;;20.40;;
70825;SDS011;58446;41.490;22.098;2022-12-07T10:01:54;35.53;;;21.92;;
70825;SDS011;58446;41.490;22.098;2022-12-07T10:04:21;38.28;;;22.27;;
70825;SDS011;58446;41.490;22.098;2022-12-07T10:06:49;32.42;;;20.30;;
70825;SDS011;58446;41.490;22.098;2022-12-07T10:09:17;29.77;;;19.70;;
70825;SDS011;58446;41.490;22.098;2022-12-07T10:14:31;30.48;;;18.98;;
70825;SDS011;58446;41.490;22.098;2022-12-07T10:16:59;30.17;;;19.33;;
70825;SDS011;58446;41.490;22.098;2022-12-07T10:19:32;57.55;;;32.10;;
70825;SDS011;58446;41.490;22.098;2022-12-07T10:22:02;34.63;;;20.10;;
70825;SDS011;58446;41.490;22.098;2022-12-07T10:24:39;43.20;;;24.38;;
70825;SDS011;58446;41.490;22.098;2022-12-07T10:27:56;28.60;;;17.30;;
70825;SDS011;58446;41.490;22.098;2022-12-07T10:29:56;31.35;;;18.33;;
70825;SDS011;58446;41.490;22.098;2022-12-07T10:32:31;23.00;;;12.68;;
70825;SDS011;58446;41.490;22.098;2022-12-07T10:37:51;11.85;;;8.38;;
70825;SDS011;58446;41.490;22.098;2022-12-07T10:48:16;13.07;;;8.03;;
70825;SDS011;58446;41.490;22.098;2022-12-07T11:01:43;10.33;;;6.20;;
70825;SDS011;58446;41.490;22.098;2022-12-07T11:16:04;72.93;;;35.87;;
70825;SDS011;58446;41.490;22.098;2022-12-07T11:32:17;13.00;;;6.78;;
70825;SDS011;58446;41.490;22.098;2022-12-07T11:34:51;11.85;;;5.88;;
70825;SDS011;58446;41.490;22.098;2022-12-07T11:37:34;13.00;;;7.88;;
70825;SDS011;58446;41.490;22.098;2022-12-07T11:40:24;10.93;;;7.05;;
70825;SDS011;58446;41.490;22.098;2022-12-07T11:45:32;11.52;;;6.28;;
70825;SDS011;58446;41.490;22.098;2022-12-07T11:48:00;11.02;;;6.00;;
70825;SDS011;58446;41.490;22.098;2022-12-07T11:50:48;10.63;;;6.00;;
70825;SDS011;58446;41.490;22.098;2022-12-07T11:53:20;11.02;;;6.78;;
70825;SDS011;58446;41.490;22.098;2022-12-07T11:55:57;11.47;;;6.67;;
70825;SDS011;58446;41.490;22.098;2022-12-07T11:58:33;20.73;;;11.70;;
70825;SDS011;58446;41.490;22.098;2022-12-07T12:04:27;13.20;;;9.00;;
70825;SDS011;58446;41.490;22.098;2022-12-07T12:06:31;19.15;;;8.90;;
70825;SDS011;58446;41.490;22.098;2022-12-07T12:19:26;19.77;;;12.25;;
70825;SDS011;58446;41.490;22.098;2022-12-07T12:24:44;180.17;;;51.33;;
70825;SDS011;58446;41.490;22.098;2022-12-07T12:27:47;38.97;;;13.93;;
70825;SDS011;58446;41.490;22.098;2022-12-07T12:30:24;213.20;;;53.03;;
70825;SDS011;58446;41.490;22.098;2022-12-07T12:33:13;205.02;;;51.10;;
70825;SDS011;58446;41.490;22.098;2022-12-07T12:35:45;184.65;;;53.97;;
70825;SDS011;58446;41.490;22.098;2022-12-07T12:38:24;36.90;;;15.63;;
70825;SDS011;58446;41.490;22.098;2022-12-07T12:41:01;20.98;;;9.75;;
70825;SDS011;58446;41.490;22.098;2022-12-07T12:43:43;15.60;;;10.27;;
70825;SDS011;58446;41.490;22.098;2022-12-07T12:51:52;16.80;;;8.85;;
70825;SDS011;58446;41.490;22.098;2022-12-07T12:54:32;27.75;;;15.27;;
70825;SDS011;58446;41.490;22.098;2022-12-07T12:59:34;31.30;;;17.25;;
70825;SDS011;58446;41.490;22.098;2022-12-07T13:04:59;28.52;;;16.38;;
70825;SDS011;58446;41.490;22.098;2022-12-07T13:15:51;14.20;;;8.70;;
70825;SDS011;58446;41.490;22.098;2022-12-07T13:18:39;10.85;;;7.32;;
70825;SDS011;58446;41.490;22.098;2022-12-07T13:23:37;15.85;;;8.75;;
70825;SDS011;58446;41.490;22.098;2022-12-07T13:26:19;12.47;;;8.07;;
70825;SDS011;58446;41.490;22.098;2022-12-07T13:28:49;20.90;;;11.63;;
70825;SDS011;58446;41.490;22.098;2022-12-07T13:31:36;12.70;;;7.20;;
70825;SDS011;58446;41.490;22.098;2022-12-07T13:34:03;20.10;;;11.30;;
70825;SDS011;58446;41.490;22.098;2022-12-07T13:36:36;23.25;;;12.85;;
70825;SDS011;58446;41.490;22.098;2022-12-07T13:41:40;49.67;;;21.23;;
70825;SDS011;58446;41.490;22.098;2022-12-07T13:44:14;12.35;;;8.05;;
70825;SDS011;58446;41.490;22.098;2022-12-07T13:46:59;18.55;;;10.95;;
70825;SDS011;58446;41.490;22.098;2022-12-07T13:49:36;18.35;;;10.57;;
70825;SDS011;58446;41.490;22.098;2022-12-07T13:57:24;19.50;;;11.10;;
70825;SDS011;58446;41.490;22.098;2022-12-07T13:59:51;14.35;;;8.35;;
70825;SDS011;58446;41.490;22.098;2022-12-07T14:02:27;17.33;;;9.77;;
70825;SDS011;58446;41.490;22.098;2022-12-07T14:05:08;19.63;;;10.87;;
70825;SDS011;58446;41.490;22.098;2022-12-07T14:10:36;23.20;;;12.40;;
70825;SDS011;58446;41.490;22.098;2022-12-07T14:15:51;17.63;;;12.07;;
70825;SDS011;58446;41.490;22.098;2022-12-07T14:18:25;17.30;;;9.60;;
70825;SDS011;58446;41.490;22.098;2022-12-07T14:21:14;20.90;;;12.63;;
70825;SDS011;58446;41.490;22.098;2022-12-07T14:23:43;20.17;;;12.25;;
70825;SDS011;58446;41.490;22.098;2022-12-07T14:26:13;20.23;;;9.27;;
70825;SDS011;58446;41.490;22.098;2022-12-07T14:28:42;17.52;;;8.13;;
70825;SDS011;58446;41.490;22.098;2022-12-07T14:31:26;20.37;;;11.27;;
70825;SDS011;58446;41.490;22.098;2022-12-07T14:33:52;17.20;;;9.68;;
70825;SDS011;58446;41.490;22.098;2022-12-07T14:36:18;16.15;;;8.73;;
70825;SDS011;58446;41.490;22.098;2022-12-07T14:38:44;15.00;;;8.07;;
70825;SDS011;58446;41.490;22.098;2022-12-07T14:41:14;14.77;;;8.13;;
70825;SDS011;58446;41.490;22.098;2022-12-07T14:44:01;16.38;;;10.40;;
70825;SDS011;58446;41.490;22.098;2022-12-07T14:46:27;18.03;;;9.70;;
70825;SDS011;58446;41.490;22.098;2022-12-07T14:48:53;27.13;;;13.48;;
70825;SDS011;58446;41.490;22.098;2022-12-07T14:51:18;15.17;;;8.50;;
70825;SDS011;58446;41.490;22.098;2022-12-07T14:53:46;67.40;;;25.90;;
70825;SDS011;58446;41.490;22.098;2022-12-07T14:56:15;77.20;;;27.67;;
70825;SDS011;58446;41.490;22.098;2022-12-07T14:58:41;57.08;;;22.27;;
70825;SDS011;58446;41.490;22.098;2022-12-07T15:01:06;45.80;;;20.60;;
70825;SDS011;58446;41.490;22.098;2022-12-07T15:03:32;64.57;;;26.02;;
70825;SDS011;58446;41.490;22.098;2022-12-07T15:06:00;52.42;;;25.23;;
70825;SDS011;58446;41.490;22.098;2022-12-07T15:08:26;35.35;;;18.88;;
70825;SDS011;58446;41.490;22.098;2022-12-07T15:10:52;25.33;;;13.27;;
70825;SDS011;58446;41.490;22.098;2022-12-07T15:13:18;36.60;;;18.33;;
70825;SDS011;58446;41.490;22.098;2022-12-07T15:16:02;20.88;;;12.40;;
70825;SDS011;58446;41.490;22.098;2022-12-07T15:18:28;39.20;;;20.27;;
70825;SDS011;58446;41.490;22.098;2022-12-07T15:20:54;40.40;;;21.17;;
70825;SDS011;58446;41.490;22.098;2022-12-07T15:23:19;45.40;;;25.43;;
70825;SDS011;58446;41.490;22.098;2022-12-07T15:25:47;80.20;;;39.70;;
70825;SDS011;58446;41.490;22.098;2022-12-07T15:28:13;47.58;;;25.30;;
70825;SDS011;58446;41.490;22.098;2022-12-07T15:30:40;34.83;;;20.33;;
70825;SDS011;58446;41.490;22.098;2022-12-07T15:33:10;17.70;;;10.80;;
70825;SDS011;58446;41.490;22.098;2022-12-07T15:35:43;31.85;;;20.08;;
70825;SDS011;58446;41.490;22.098;2022-12-07T15:38:10;30.27;;;21.85;;
70825;SDS011;58446;41.490;22.098;2022-12-07T15:40:36;35.92;;;24.27;;
70825;SDS011;58446;41.490;22.098;2022-12-07T15:43:03;28.05;;;17.42;;
70825;SDS011;58446;41.490;22.098;2022-12-07T15:45:29;26.53;;;13.57;;
70825;SDS011;58446;41.490;22.098;2022-12-07T15:47:55;20.73;;;12.75;;
70825;SDS011;58446;41.490;22.098;2022-12-07T15:50:21;27.08;;;16.27;;
70825;SDS011;58446;41.490;22.098;2022-12-07T15:52:47;23.02;;;12.70;;
70825;SDS011;58446;41.490;22.098;2022-12-07T15:55:13;27.83;;;16.13;;
70825;SDS011;58446;41.490;22.098;2022-12-07T15:57:39;28.08;;;15.50;;
70825;SDS011;58446;41.490;22.098;2022-12-07T16:00:05;35.60;;;20.77;;
70825;SDS011;58446;41.490;22.098;2022-12-07T16:02:32;34.72;;;19.02;;
70825;SDS011;58446;41.490;22.098;2022-12-07T16:04:58;26.88;;;15.43;;
70825;SDS011;58446;41.490;22.098;2022-12-07T16:07:23;26.00;;;15.97;;
70825;SDS011;58446;41.490;22.098;2022-12-07T16:09:49;26.27;;;16.17;;
70825;SDS011;58446;41.490;22.098;2022-12-07T16:12:15;21.53;;;13.90;;
70825;SDS011;58446;41.490;22.098;2022-12-07T16:14:41;23.52;;;14.75;;
70825;SDS011;58446;41.490;22.098;2022-12-07T16:17:07;27.00;;;16.13;;
70825;SDS011;58446;41.490;22.098;2022-12-07T16:19:34;23.13;;;15.45;;
70825;SDS011;58446;41.490;22.098;2022-12-07T16:22:00;25.02;;;16.50;;
70825;SDS011;58446;41.490;22.098;2022-12-07T16:24:26;21.15;;;12.57;;
70825;SDS011;58446;41.490;22.098;2022-12-07T16:26:52;39.95;;;22.13;;
70825;SDS011;58446;41.490;22.098;2022-12-07T16:29:18;35.30;;;19.60;;
70825;SDS011;58446;41.490;22.098;2022-12-07T16:31:45;50.58;;;23.40;;
70825;SDS011;58446;41.490;22.098;2022-12-07T16:34:11;64.35;;;27.65;;
70825;SDS011;58446;41.490;22.098;2022-12-07T16:36:37;48.27;;;21.60;;
70825;SDS011;58446;41.490;22.098;2022-12-07T16:39:03;53.00;;;24.95;;
70825;SDS011;58446;41.490;22.098;2022-12-07T16:41:29;66.50;;;32.27;;
70825;SDS011;58446;41.490;22.098;2022-12-07T16:43:55;123.90;;;51.33;;
70825;SDS011;58446;41.490;22.098;2022-12-07T16:46:20;47.67;;;25.38;;